createdAt,value
2023-04-16T00:01:06.345Z,90.38
2023-04-16T00:03:33.305Z,91.31
2023-04-16T00:06:00.816Z,90.16
2023-04-16T00:08:27.523Z,90.95
2023-04-16T00:10:54.299Z,90.22
2023-04-16T00:13:21.448Z,91.30
2023-04-16T00:15:48.632Z,91.30
2023-04-16T00:18:15.539Z,90.99
2023-04-16T00:20:42.229Z,91.25
2023-04-16T00:23:08.866Z,91.80
2023-04-16T00:25:35.577Z,91.94
2023-04-16T00:28:02.133Z,91.63
2023-04-16T00:30:28.930Z,91.03
2023-04-16T00:32:55.528Z,90.96
2023-04-16T00:35:22.090Z,91.70
2023-04-16T00:37:48.825Z,90.89
2023-04-16T00:40:15.582Z,91.17
2023-04-16T00:42:42.136Z,91.81
2023-04-16T00:45:09.712Z,91.49
2023-04-16T00:47:36.552Z,92.79
2023-04-16T00:50:04.619Z,91.61
2023-04-16T00:52:33.070Z,91.37
2023-04-16T00:54:59.983Z,92.00
2023-04-16T00:57:26.999Z,92.10
2023-04-16T00:59:54.306Z,92.06
2023-04-16T01:02:21.062Z,91.67
2023-04-16T01:04:48.044Z,92.28
2023-04-16T01:07:14.555Z,91.77
2023-04-16T01:09:41.389Z,92.38
2023-04-16T01:12:08.211Z,92.25
2023-04-16T01:14:36.379Z,91.61
2023-04-16T01:17:04.160Z,91.92
2023-04-16T01:19:36.287Z,92.40
2023-04-16T01:22:04.229Z,91.25
2023-04-16T01:24:31.252Z,91.69
2023-04-16T01:27:01.364Z,91.88
2023-04-16T01:29:27.997Z,92.21
2023-04-16T01:31:54.609Z,92.30
2023-04-16T01:34:21.463Z,92.76
2023-04-16T01:36:48.046Z,92.69
2023-04-16T01:39:16.347Z,92.75
2023-04-16T01:41:45.170Z,92.11
2023-04-16T01:44:11.688Z,91.48
2023-04-16T01:46:38.761Z,92.66
2023-04-16T01:49:07.469Z,92.32
2023-04-16T01:51:34.316Z,91.92
2023-04-16T01:54:01.288Z,92.67
2023-04-16T01:56:27.971Z,92.07
2023-04-16T01:58:56.254Z,92.99
2023-04-16T02:01:22.936Z,92.14
2023-04-16T02:03:50.055Z,92.43
2023-04-16T02:06:16.886Z,92.63
2023-04-16T02:08:43.499Z,92.51
2023-04-16T02:11:10.374Z,92.88
2023-04-16T02:13:37.349Z,92.28
2023-04-16T02:16:04.314Z,93.07
2023-04-16T02:18:30.848Z,92.68
2023-04-16T02:20:59.884Z,92.23
2023-04-16T02:23:26.807Z,93.01
2023-04-16T02:25:53.683Z,92.33
2023-04-16T02:28:20.267Z,92.51
2023-04-16T02:30:46.806Z,92.66
2023-04-16T02:33:13.468Z,92.60
2023-04-16T02:35:41.070Z,91.51
2023-04-16T02:38:08.354Z,91.94
2023-04-16T02:40:35.427Z,91.58
2023-04-16T02:43:02.114Z,92.54
2023-04-16T02:45:28.762Z,91.62
2023-04-16T02:47:55.367Z,92.66
2023-04-16T02:50:22.080Z,92.33
2023-04-16T02:52:48.690Z,92.64
2023-04-16T02:55:15.336Z,92.61
2023-04-16T02:57:42.762Z,91.53
2023-04-16T03:00:10.136Z,92.92
2023-04-16T03:02:36.901Z,93.21
2023-04-16T03:05:04.180Z,91.94
2023-04-16T03:07:31.037Z,92.59
2023-04-16T03:09:57.778Z,92.20
2023-04-16T03:12:24.407Z,92.66
2023-04-16T03:14:52.680Z,93.16
2023-04-16T03:17:19.384Z,92.53
2023-04-16T03:19:46.169Z,93.09
2023-04-16T03:22:12.848Z,92.92
2023-04-16T03:24:39.570Z,92.55
2023-04-16T03:27:06.382Z,93.49
2023-04-16T03:29:32.960Z,92.74
2023-04-16T03:31:59.538Z,93.37
2023-04-16T03:34:26.133Z,92.08
2023-04-16T03:36:52.710Z,92.86
2023-04-16T03:39:19.383Z,92.64
2023-04-16T03:41:46.350Z,92.55
2023-04-16T03:44:12.969Z,92.87
2023-04-16T03:46:39.639Z,94.64
2023-04-16T03:49:06.266Z,93.39
2023-04-16T03:51:32.870Z,92.96
2023-04-16T03:53:59.469Z,93.43
2023-04-16T03:56:26.165Z,93.38
2023-04-16T03:58:52.689Z,92.79
2023-04-16T04:01:19.199Z,93.38
2023-04-16T04:03:46.006Z,94.01
2023-04-16T04:06:12.816Z,93.64
2023-04-16T04:08:39.332Z,94.21
2023-04-16T04:11:06.012Z,95.13
2023-04-16T04:13:32.555Z,93.55
2023-04-16T04:15:59.151Z,93.20
2023-04-16T04:18:25.724Z,93.72
2023-04-16T04:20:52.336Z,93.66
2023-04-16T04:23:19.075Z,93.21
2023-04-16T04:25:45.998Z,93.86
2023-04-16T04:28:12.611Z,93.06
2023-04-16T04:30:39.320Z,93.09
2023-04-16T04:33:06.321Z,93.31
2023-04-16T04:35:33.346Z,92.60
2023-04-16T04:38:00.208Z,93.49
2023-04-16T04:40:26.773Z,92.69
2023-04-16T04:42:53.314Z,94.57
2023-04-16T04:45:19.859Z,93.15
2023-04-16T04:47:48.768Z,92.98
2023-04-16T04:50:15.594Z,93.70
2023-04-16T04:52:42.173Z,94.11
2023-04-16T04:55:08.988Z,93.90
2023-04-16T04:57:35.843Z,93.61
2023-04-16T05:00:04.121Z,93.34
2023-04-16T05:02:30.785Z,93.47
2023-04-16T05:04:58.874Z,93.74
2023-04-16T05:07:25.502Z,93.57
2023-04-16T05:09:52.064Z,93.84
2023-04-16T05:12:18.635Z,93.53
2023-04-16T05:14:45.394Z,93.57
2023-04-16T05:17:12.161Z,93.06
2023-04-16T05:19:39.037Z,93.82
2023-04-16T05:22:05.732Z,93.56
2023-04-16T05:24:32.654Z,93.78
2023-04-16T05:26:59.180Z,93.37
2023-04-16T05:29:25.855Z,93.18
2023-04-16T05:31:52.924Z,93.72
2023-04-16T05:34:19.526Z,94.01
2023-04-16T05:36:46.299Z,93.69
2023-04-16T05:39:12.905Z,93.68
2023-04-16T05:41:39.421Z,93.53
2023-04-16T05:44:05.966Z,93.97
2023-04-16T05:46:32.557Z,93.46
2023-04-16T05:48:59.160Z,94.01
2023-04-16T05:51:27.531Z,93.75
2023-04-16T05:53:54.054Z,93.12
2023-04-16T05:56:21.803Z,93.87
2023-04-16T05:58:48.321Z,93.92
2023-04-16T06:01:14.889Z,94.30
2023-04-16T06:03:41.639Z,94.17
2023-04-16T06:06:09.166Z,94.46
2023-04-16T06:08:35.831Z,93.76
2023-04-16T06:11:03.597Z,94.25
2023-04-16T06:13:30.256Z,93.64
2023-04-16T06:15:56.847Z,93.46
2023-04-16T06:18:23.621Z,94.31
2023-04-16T06:20:50.490Z,94.58
2023-04-16T06:23:17.168Z,94.15
2023-04-16T06:25:43.676Z,93.50
2023-04-16T06:28:10.217Z,93.43
2023-04-16T06:30:36.741Z,93.94
2023-04-16T06:33:03.419Z,93.17
2023-04-16T06:35:29.998Z,93.91
2023-04-16T06:37:56.904Z,93.80
2023-04-16T06:40:23.474Z,94.44
2023-04-16T06:42:50.306Z,94.54
2023-04-16T06:45:16.941Z,94.51
2023-04-16T06:47:43.603Z,94.67
2023-04-16T06:50:10.469Z,94.43
2023-04-16T06:52:37.075Z,94.18
2023-04-16T06:55:03.912Z,93.89
2023-04-16T06:57:30.565Z,93.85
2023-04-16T06:59:57.196Z,94.96
2023-04-16T07:02:24.324Z,94.33
2023-04-16T07:04:52.290Z,94.67
2023-04-16T07:07:18.978Z,94.24
2023-04-16T07:09:45.564Z,93.53
2023-04-16T07:12:12.355Z,93.39
2023-04-16T07:14:39.155Z,94.44
2023-04-16T07:17:05.887Z,94.00
2023-04-16T07:19:32.774Z,93.79
2023-04-16T07:22:03.555Z,94.15
2023-04-16T07:24:30.482Z,93.79
2023-04-16T07:26:57.208Z,93.63
2023-04-16T07:29:23.812Z,94.95
2023-04-16T07:31:51.407Z,93.64
2023-04-16T07:34:19.140Z,94.40
2023-04-16T07:36:45.978Z,94.19
2023-04-16T07:39:13.145Z,93.98
2023-04-16T07:41:40.985Z,93.55
2023-04-16T07:44:08.082Z,93.28
2023-04-16T07:46:45.630Z,94.19
2023-04-16T07:49:13.419Z,93.92
2023-04-16T07:51:40.036Z,93.51
2023-04-16T07:54:06.707Z,93.85
2023-04-16T07:56:33.369Z,93.61
2023-04-16T07:59:07.907Z,93.37
2023-04-16T08:01:41.590Z,93.77
2023-04-16T08:04:08.357Z,93.56
2023-04-16T08:06:35.050Z,93.50
2023-04-16T08:09:01.545Z,93.43
2023-04-16T08:11:28.831Z,92.96
2023-04-16T08:13:55.856Z,93.78
2023-04-16T08:16:22.707Z,93.53
2023-04-16T08:18:49.407Z,93.84
2023-04-16T08:21:15.998Z,93.42
2023-04-16T08:23:42.509Z,93.19
2023-04-16T08:26:09.033Z,92.95
2023-04-16T08:28:37.597Z,93.09
2023-04-16T08:31:04.302Z,93.14
2023-04-16T08:33:30.990Z,93.87
2023-04-16T08:35:57.578Z,92.51
2023-04-16T08:38:24.184Z,93.02
2023-04-16T08:40:51.252Z,94.10
2023-04-16T08:43:19.335Z,92.38
2023-04-16T08:45:47.545Z,92.55
2023-04-16T08:48:15.570Z,93.08
2023-04-16T08:50:44.038Z,93.04
2023-04-16T08:53:18.886Z,93.16
2023-04-16T08:55:50.618Z,92.90
2023-04-16T08:58:22.545Z,93.17
2023-04-16T09:00:49.819Z,92.64
2023-04-16T09:03:16.489Z,93.16
2023-04-16T09:05:44.059Z,93.26
2023-04-16T09:08:10.715Z,93.01
2023-04-16T09:10:37.331Z,92.19
2023-04-16T09:13:04.023Z,92.08
2023-04-16T09:15:30.805Z,92.10
2023-04-16T09:17:57.852Z,92.08
2023-04-16T09:20:24.731Z,92.18
2023-04-16T09:22:51.358Z,91.48
2023-04-16T09:25:21.352Z,91.68
2023-04-16T09:27:50.942Z,91.85
2023-04-16T09:30:26.170Z,92.67
2023-04-16T09:33:12.149Z,91.65
2023-04-16T09:36:05.954Z,91.73
2023-04-16T09:38:52.647Z,91.17
2023-04-16T09:41:20.564Z,91.53
2023-04-16T09:43:58.324Z,91.80
2023-04-16T09:46:34.974Z,91.46
2023-04-16T09:49:15.473Z,91.19
2023-04-16T09:51:43.645Z,91.13
2023-04-16T09:54:11.225Z,91.17
2023-04-16T09:56:43.678Z,90.86
2023-04-16T09:59:21.119Z,91.89
2023-04-16T10:01:53.332Z,91.56
2023-04-16T10:04:51.297Z,91.29
2023-04-16T10:07:19.515Z,91.07
2023-04-16T10:09:50.788Z,91.17
2023-04-16T10:12:17.309Z,91.29
2023-04-16T10:14:43.936Z,91.48
2023-04-16T10:17:10.994Z,91.52
2023-04-16T10:19:38.410Z,91.31
2023-04-16T10:22:05.523Z,91.20
2023-04-16T10:24:34.542Z,91.59
2023-04-16T10:27:01.778Z,91.15
2023-04-16T10:29:31.230Z,91.48
2023-04-16T10:31:59.428Z,90.73
2023-04-16T10:34:27.622Z,91.48
2023-04-16T10:36:55.294Z,90.75
2023-04-16T10:39:24.102Z,91.29
2023-04-16T10:41:52.592Z,90.88
2023-04-16T10:44:19.696Z,90.84
2023-04-16T10:46:49.797Z,90.26
2023-04-16T10:49:23.310Z,90.82
2023-04-16T10:52:02.243Z,91.01
2023-04-16T10:54:31.056Z,91.15
2023-04-16T10:57:01.648Z,90.45
2023-04-16T10:59:35.282Z,91.22
2023-04-16T11:02:08.573Z,91.00
2023-04-16T11:04:38.069Z,90.50
2023-04-16T11:07:07.482Z,90.63
2023-04-16T11:09:59.997Z,90.37
2023-04-16T11:12:29.682Z,90.68
2023-04-16T11:15:10.009Z,90.84
2023-04-16T11:17:40.223Z,90.13
2023-04-16T11:20:19.080Z,90.44
2023-04-16T11:22:50.650Z,90.18
2023-04-16T11:25:31.860Z,90.02
2023-04-16T11:27:59.261Z,90.25
2023-04-16T11:30:31.572Z,90.14
2023-04-16T11:32:58.230Z,89.61
2023-04-16T11:35:25.235Z,89.71
2023-04-16T11:37:56.865Z,89.58
2023-04-16T11:40:24.190Z,89.81
2023-04-16T11:42:50.828Z,89.57
2023-04-16T11:45:19.381Z,90.11
2023-04-16T11:47:51.734Z,89.52
2023-04-16T11:50:28.766Z,89.83
2023-04-16T11:52:58.949Z,89.33
2023-04-16T11:55:25.682Z,89.59
2023-04-16T11:57:52.765Z,89.24
2023-04-16T12:00:23.751Z,89.44
2023-04-16T12:02:53.931Z,89.03
2023-04-16T12:05:35.300Z,89.28
2023-04-16T12:08:04.618Z,89.36
2023-04-16T12:10:37.354Z,89.46
2023-04-16T12:13:14.484Z,88.96
2023-04-16T12:15:55.904Z,89.70
2023-04-16T12:18:26.078Z,89.35
2023-04-16T12:20:52.845Z,89.15
2023-04-16T12:23:27.795Z,89.15
2023-04-16T12:25:57.913Z,89.21
2023-04-16T12:28:29.948Z,88.65
2023-04-16T12:30:56.996Z,88.40
2023-04-16T12:33:23.765Z,88.66
2023-04-16T12:35:51.080Z,88.30
2023-04-16T12:38:17.999Z,88.25
2023-04-16T12:40:44.967Z,88.76
2023-04-16T12:43:11.545Z,88.52
2023-04-16T12:45:40.038Z,88.42
2023-04-16T12:48:07.137Z,88.37
2023-04-16T12:50:33.738Z,88.51
2023-04-16T12:53:00.345Z,88.65
2023-04-16T12:55:26.909Z,88.72
2023-04-16T12:57:54.612Z,88.80
2023-04-16T13:00:21.988Z,88.79
2023-04-16T13:02:48.770Z,88.52
2023-04-16T13:05:16.623Z,88.26
2023-04-16T13:07:43.323Z,88.17
2023-04-16T13:10:13.623Z,88.47
2023-04-16T13:12:40.335Z,88.33
2023-04-16T13:15:07.480Z,88.32
2023-04-16T13:17:34.073Z,88.31
2023-04-16T13:20:00.609Z,87.74
2023-04-16T13:22:27.190Z,88.48
2023-04-16T13:24:53.899Z,88.55
2023-04-16T13:27:21.081Z,88.12
2023-04-16T13:29:47.673Z,87.61
2023-04-16T13:32:14.810Z,88.03
2023-04-16T13:34:41.525Z,88.08
2023-04-16T13:37:08.130Z,87.69
2023-04-16T13:39:34.724Z,87.89
2023-04-16T13:42:01.822Z,87.61
2023-04-16T13:44:28.380Z,87.12
2023-04-16T13:46:56.130Z,87.95
2023-04-16T13:49:23.407Z,87.53
2023-04-16T13:51:50.033Z,87.71
2023-04-16T13:54:16.878Z,87.63
2023-04-16T13:56:43.995Z,87.90
2023-04-16T13:59:10.907Z,87.28
2023-04-16T14:01:37.817Z,86.68
2023-04-16T14:04:06.822Z,87.61
2023-04-16T14:06:34.720Z,87.96
2023-04-16T14:09:01.886Z,87.42
2023-04-16T14:11:28.719Z,87.61
2023-04-16T14:13:55.517Z,87.55
2023-04-16T14:16:22.296Z,87.71
2023-04-16T14:18:48.872Z,87.26
2023-04-16T14:21:15.583Z,87.02
2023-04-16T14:23:42.155Z,87.04
2023-04-16T14:26:08.931Z,87.23
2023-04-16T14:28:35.943Z,87.23
2023-04-16T14:31:02.557Z,87.42
2023-04-16T14:33:29.266Z,86.82
2023-04-16T14:35:56.061Z,86.32
2023-04-16T14:38:22.701Z,86.04
2023-04-16T14:40:49.412Z,86.15
2023-04-16T14:43:16.281Z,85.89
2023-04-16T14:45:42.928Z,85.67
2023-04-16T14:48:09.549Z,85.42
2023-04-16T14:50:37.918Z,85.67
2023-04-16T14:53:05.315Z,85.72
2023-04-16T14:55:32.303Z,86.38
2023-04-16T14:57:59.725Z,86.36
2023-04-16T15:00:27.273Z,86.13
2023-04-16T15:02:54.872Z,85.74
2023-04-16T15:05:22.026Z,86.08
2023-04-16T15:07:48.714Z,86.21
2023-04-16T15:10:15.628Z,86.73
2023-04-16T15:12:42.231Z,86.77
2023-04-16T15:15:09.455Z,86.10
2023-04-16T15:17:36.285Z,85.68
2023-04-16T15:20:05.921Z,85.90
2023-04-16T15:22:32.460Z,85.18
2023-04-16T15:24:59.019Z,84.47
2023-04-16T15:27:25.890Z,84.76
2023-04-16T15:29:53.882Z,84.73
2023-04-16T15:32:20.609Z,85.17
2023-04-16T15:34:47.209Z,84.21
2023-04-16T15:37:14.032Z,84.68
2023-04-16T15:39:40.706Z,84.40
2023-04-16T15:42:08.114Z,84.95
2023-04-16T15:44:34.793Z,84.30
2023-04-16T15:47:01.371Z,84.65
2023-04-16T15:49:28.078Z,84.29
2023-04-16T15:51:55.932Z,84.98
2023-04-16T15:54:22.505Z,85.11
2023-04-16T15:56:49.138Z,84.60
2023-04-16T15:59:15.991Z,85.32
2023-04-16T16:01:42.643Z,85.08
2023-04-16T16:04:09.733Z,85.07
2023-04-16T16:06:38.122Z,84.97
2023-04-16T16:09:04.980Z,85.07
2023-04-16T16:11:32.560Z,85.67
2023-04-16T16:14:02.387Z,85.63
2023-04-16T16:16:29.185Z,85.32
2023-04-16T16:18:55.938Z,85.68
2023-04-16T16:21:22.716Z,84.95
2023-04-16T16:23:49.352Z,85.67
2023-04-16T16:26:16.151Z,85.27
2023-04-16T16:28:45.940Z,85.07
2023-04-16T16:31:12.565Z,84.96
2023-04-16T16:33:41.522Z,85.27
2023-04-16T16:36:11.955Z,85.26
2023-04-16T16:38:40.837Z,85.28
2023-04-16T16:41:07.912Z,85.25
2023-04-16T16:43:37.924Z,85.74
2023-04-16T16:46:07.287Z,86.23
2023-04-16T16:48:33.993Z,85.61
2023-04-16T16:51:00.971Z,85.66
2023-04-16T16:53:27.683Z,85.37
2023-04-16T16:55:54.768Z,85.81
2023-04-16T16:58:21.392Z,86.22
2023-04-16T17:00:48.055Z,86.23
2023-04-16T17:03:14.841Z,86.33
2023-04-16T17:05:46.365Z,86.37
2023-04-16T17:08:16.531Z,86.75
2023-04-16T17:10:43.797Z,86.88
2023-04-16T17:13:10.635Z,86.33
2023-04-16T17:15:37.303Z,86.60
2023-04-16T17:18:04.169Z,86.00
2023-04-16T17:20:32.484Z,86.35
2023-04-16T17:22:59.481Z,86.70
2023-04-16T17:25:26.311Z,87.02
2023-04-16T17:27:53.024Z,87.13
2023-04-16T17:30:19.768Z,87.19
2023-04-16T17:32:46.514Z,87.81
2023-04-16T17:35:13.984Z,87.48
2023-04-16T17:37:40.731Z,86.89
2023-04-16T17:40:07.967Z,87.41
2023-04-16T17:42:35.352Z,87.77
2023-04-16T17:45:02.783Z,87.67
2023-04-16T17:47:34.037Z,87.02
2023-04-16T17:50:00.911Z,87.41
2023-04-16T17:52:27.545Z,87.59
2023-04-16T17:55:00.219Z,87.85
2023-04-16T17:57:27.827Z,88.12
2023-04-16T17:59:54.352Z,87.98
2023-04-16T18:02:21.205Z,87.37
2023-04-16T18:04:48.594Z,88.01
2023-04-16T18:07:15.358Z,88.66
2023-04-16T18:09:42.053Z,88.35
2023-04-16T18:12:08.709Z,88.48
2023-04-16T18:14:35.815Z,89.01
2023-04-16T18:17:04.328Z,88.72
2023-04-16T18:19:32.995Z,88.28
2023-04-16T18:21:59.551Z,89.31
2023-04-16T18:24:26.186Z,89.33
2023-04-16T18:26:53.591Z,88.82
2023-04-16T18:29:24.828Z,89.54
2023-04-16T18:31:52.002Z,89.43
2023-04-16T18:34:18.660Z,89.61
2023-04-16T18:36:45.913Z,89.09
2023-04-16T18:39:12.515Z,89.57
2023-04-16T18:41:40.655Z,88.97
2023-04-16T18:44:07.262Z,89.48
2023-04-16T18:46:33.854Z,89.50
2023-04-16T18:49:00.590Z,89.33
2023-04-16T18:51:27.233Z,88.59
2023-04-16T18:53:53.818Z,89.19
2023-04-16T18:56:20.719Z,90.21
2023-04-16T18:58:47.813Z,89.50
2023-04-16T19:01:15.525Z,89.24
2023-04-16T19:03:42.254Z,89.35
2023-04-16T19:06:09.237Z,89.58
2023-04-16T19:08:35.865Z,90.09
2023-04-16T19:11:02.439Z,90.36
2023-04-16T19:13:30.297Z,90.45
2023-04-16T19:16:01.377Z,90.13
2023-04-16T19:18:28.143Z,90.17
2023-04-16T19:21:01.273Z,90.17
2023-04-16T19:23:28.772Z,90.27
2023-04-16T19:25:56.784Z,89.77
2023-04-16T19:28:24.495Z,90.25
2023-04-16T19:30:52.057Z,89.80
2023-04-16T19:33:19.142Z,89.98
2023-04-16T19:35:46.966Z,90.12
2023-04-16T19:38:13.644Z,89.84
2023-04-16T19:40:40.992Z,89.27
2023-04-16T19:43:07.654Z,89.57
2023-04-16T19:45:34.427Z,90.31
2023-04-16T19:48:01.088Z,90.66
2023-04-16T19:50:27.789Z,90.19
2023-04-16T19:52:54.384Z,90.22
2023-04-16T19:55:21.208Z,90.54
2023-04-16T19:57:48.241Z,90.82
2023-04-16T20:00:15.177Z,90.47
2023-04-16T20:02:41.960Z,90.35
2023-04-16T20:05:09.154Z,90.13
2023-04-16T20:07:35.915Z,89.84
2023-04-16T20:10:02.964Z,90.52
2023-04-16T20:12:29.675Z,90.81
2023-04-16T20:14:56.307Z,90.30
2023-04-16T20:17:23.013Z,90.26
2023-04-16T20:19:51.228Z,90.41
2023-04-16T20:22:18.789Z,90.71
2023-04-16T20:24:47.767Z,91.12
2023-04-16T20:27:19.364Z,90.77
2023-04-16T20:29:46.207Z,91.22
2023-04-16T20:32:12.780Z,90.37
2023-04-16T20:34:39.955Z,90.75
2023-04-16T20:37:07.556Z,90.55
2023-04-16T20:39:34.579Z,90.76
2023-04-16T20:42:04.119Z,90.67
2023-04-16T20:44:40.399Z,90.39
2023-04-16T20:47:11.617Z,91.82
2023-04-16T20:49:38.442Z,91.06
2023-04-16T20:52:05.574Z,91.89
2023-04-16T20:54:32.123Z,91.15
2023-04-16T20:56:58.905Z,91.35
2023-04-16T20:59:25.966Z,91.07
2023-04-16T21:01:52.729Z,90.99
2023-04-16T21:04:19.750Z,91.62
2023-04-16T21:06:46.956Z,91.06
2023-04-16T21:09:13.714Z,91.70
2023-04-16T21:11:40.367Z,91.62
2023-04-16T21:14:06.977Z,91.04
2023-04-16T21:16:36.056Z,91.76
2023-04-16T21:19:03.106Z,91.25
2023-04-16T21:21:29.749Z,91.50
2023-04-16T21:23:56.300Z,91.94
2023-04-16T21:26:22.912Z,91.67
2023-04-16T21:28:49.541Z,91.11
2023-04-16T21:31:16.366Z,91.88
2023-04-16T21:33:43.087Z,91.91
2023-04-16T21:36:10.456Z,91.73
2023-04-16T21:38:37.027Z,91.73
2023-04-16T21:41:03.718Z,92.40
2023-04-16T21:43:31.910Z,92.02
2023-04-16T21:45:59.118Z,92.01
2023-04-16T21:48:25.910Z,92.62
2023-04-16T21:50:56.063Z,91.67
2023-04-16T21:53:22.655Z,92.07
2023-04-16T21:55:49.217Z,91.88
2023-04-16T21:58:15.781Z,92.25
2023-04-16T22:00:42.459Z,91.24
2023-04-16T22:03:12.380Z,92.36
2023-04-16T22:05:39.149Z,91.85
2023-04-16T22:08:23.228Z,92.26
2023-04-16T22:10:50.410Z,92.33
2023-04-16T22:13:18.286Z,92.41
2023-04-16T22:15:44.969Z,92.77
2023-04-16T22:18:11.576Z,91.78
2023-04-16T22:20:39.241Z,92.91
2023-04-16T22:23:06.733Z,92.29
2023-04-16T22:25:33.506Z,92.57
2023-04-16T22:28:01.564Z,92.81
2023-04-16T22:30:28.382Z,92.48
2023-04-16T22:32:55.267Z,92.18
2023-04-16T22:35:21.946Z,91.77
2023-04-16T22:37:48.551Z,91.84
2023-04-16T22:40:15.743Z,92.12
2023-04-16T22:42:42.327Z,92.60
2023-04-16T22:45:09.504Z,92.29
2023-04-16T22:47:36.200Z,92.96
2023-04-16T22:50:03.159Z,92.53
2023-04-16T22:52:29.778Z,93.15
2023-04-16T22:54:56.329Z,93.07
2023-04-16T22:57:25.509Z,92.98
2023-04-16T22:59:53.044Z,93.58
2023-04-16T23:02:20.692Z,92.73
2023-04-16T23:04:47.790Z,93.06
2023-04-16T23:07:15.086Z,93.27
2023-04-16T23:09:42.359Z,93.26
2023-04-16T23:12:09.069Z,93.74
2023-04-16T23:14:36.747Z,92.92
2023-04-16T23:17:03.363Z,93.25
2023-04-16T23:19:31.168Z,93.38
2023-04-16T23:21:57.941Z,93.19
2023-04-16T23:24:24.510Z,94.16
2023-04-16T23:26:52.390Z,93.66
2023-04-16T23:29:20.628Z,93.33
2023-04-16T23:31:47.619Z,93.78
2023-04-16T23:34:14.606Z,93.76
2023-04-16T23:36:41.283Z,93.56
2023-04-16T23:39:07.821Z,93.90
2023-04-16T23:41:34.697Z,92.47
2023-04-16T23:44:01.380Z,93.62
2023-04-16T23:46:28.000Z,93.04
2023-04-16T23:48:57.300Z,93.20
2023-04-16T23:51:23.835Z,92.92
2023-04-16T23:53:50.498Z,93.78
2023-04-16T23:56:17.237Z,93.16
2023-04-16T23:58:43.861Z,93.89
